West Blue, Nebraska
Current Conditions -  °F | °C
As of 11:53 PM on Saturday 22 Nov 2014 (Local Time) from KHSI Reporting Station
Overcast Overcast  
Wind Chill: 54°   Ceiling: 1600
Heat Index: 54°   Visibility: 10mi
Dew Point: 48°   Wind: 13mph
Humidity: 80%   Direction: 200°SSW
Pressure: 29.51"   Gusts: NA
Location:  40.5551°N, 98.369°W
Report Text: KHSI 230553Z AUTO 20011KT 10SM OVC016 12/09 A2951 RMK AO2 SLP994 T01220089 10128 20083 401391006 58009
Loading
Personal Weather Stations






























Interactive Weather Map New forecast layout! Learn more

10-Day Weather Forecast

Advertisements
Track Severe Weather on mobile